Time;durP1;ratioP1;P1;durP2;ratioP2;P2;SDS_P1;SDS_P2;PMS_P1;PMS_P2;Temp;Humidity;BMP_temperature;BMP_pressure;BME280_temperature;BME280_humidity;BME280_pressure;Samples;Min_cycle;Max_cycle;Signal;HPM_P1;HPM_P2
2022/11/10 00:00:18;;;;;;;114.40;90.18;;;10.80;99.90;;;;;;5070865;28;20070;-52
2022/11/10 00:02:44;;;;;;;114.97;92.07;;;10.70;99.90;;;;;;5073527;28;20105;-55
2022/11/10 00:05:11;;;;;;;115.68;92.50;;;10.50;99.90;;;;;;5073986;28;21127;-54
2022/11/10 00:07:37;;;;;;;107.82;85.18;;;10.40;99.90;;;;;;5050617;28;20103;-54
2022/11/10 00:10:03;;;;;;;80.13;61.80;;;10.50;99.90;;;;;;5083437;28;20106;-59
2022/11/10 00:12:30;;;;;;;74.88;54.38;;;10.40;99.90;;;;;;5015395;28;20044;-54
2022/11/10 00:17:40;;;;;;;84.70;66.13;;;10.00;99.90;;;;;;5080138;28;20461;-55
2022/11/10 00:20:06;;;;;;;81.30;67.82;;;10.20;99.90;;;;;;5082062;28;20028;-54
2022/11/10 00:22:33;;;;;;;104.22;83.78;;;10.40;99.90;;;;;;5080447;28;20028;-52
2022/11/10 00:24:59;;;;;;;101.03;78.35;;;10.50;99.90;;;;;;5075734;28;20059;-53
2022/11/10 00:27:25;;;;;;;121.30;96.00;;;10.60;99.90;;;;;;5074846;28;20035;-54
2022/11/10 00:29:50;;;;;;;112.47;93.10;;;10.70;99.90;;;;;;5073709;28;20036;-55
2022/11/10 00:32:16;;;;;;;116.85;89.82;;;10.70;99.90;;;;;;5057174;28;20388;-54
2022/11/10 00:34:42;;;;;;;119.65;94.43;;;10.70;99.90;;;;;;5072726;28;20020;-54
2022/11/10 00:37:07;;;;;;;110.80;85.53;;;10.70;99.90;;;;;;5071356;28;20413;-54
2022/11/10 00:39:33;;;;;;;114.32;90.65;;;10.70;99.90;;;;;;5078360;28;20028;-54
2022/11/10 00:41:59;;;;;;;104.07;80.93;;;10.70;99.90;;;;;;5070197;28;20040;-55
2022/11/10 00:44:25;;;;;;;104.85;78.20;;;10.80;99.90;;;;;;5084068;28;20506;-52
2022/11/10 00:46:50;;;;;;;128.68;97.05;;;10.70;99.90;;;;;;5067526;28;20041;-53
2022/11/10 00:49:16;;;;;;;102.53;82.68;;;10.70;99.90;;;;;;5067445;28;20037;-52
2022/11/10 00:51:42;;;;;;;103.18;82.43;;;10.50;99.90;;;;;;5074051;28;20036;-52
2022/11/10 00:54:07;;;;;;;98.00;78.97;;;10.40;99.90;;;;;;5074072;28;20023;-52
2022/11/10 00:56:33;;;;;;;86.53;73.05;;;10.30;99.90;;;;;;5065175;28;20034;-53
2022/11/10 00:58:59;;;;;;;93.05;76.03;;;10.30;99.90;;;;;;5072749;28;20436;-51
2022/11/10 01:01:25;;;;;;;91.78;74.20;;;10.30;99.90;;;;;;5082236;28;20037;-53
2022/11/10 01:03:52;;;;;;;173.80;74.13;;;10.30;99.90;;;;;;5078989;28;20074;-54
2022/11/10 01:06:20;;;;;;;549.38;91.53;;;10.30;99.90;;;;;;5018809;28;20048;-52
2022/11/10 01:08:46;;;;;;;347.25;57.03;;;10.40;99.90;;;;;;5073896;28;20030;-52
2022/11/10 01:11:13;;;;;;;314.80;51.58;;;10.30;99.90;;;;;;5062681;28;20120;-53
2022/11/10 01:13:39;;;;;;;399.15;60.03;;;10.30;99.90;;;;;;5079045;28;20020;-52
2022/11/10 01:16:07;;;;;;;206.43;53.78;;;10.30;99.90;;;;;;5072483;28;20078;-52
2022/11/10 01:18:33;;;;;;;266.15;52.50;;;10.20;99.90;;;;;;5087470;28;20024;-53
2022/11/10 01:20:59;;;;;;;110.63;43.92;;;10.20;99.90;;;;;;5074555;28;20036;-53
2022/11/10 01:23:25;;;;;;;115.78;34.97;;;10.10;99.90;;;;;;5076190;28;20029;-53
2022/11/10 01:25:50;;;;;;;94.47;36.20;;;10.10;99.90;;;;;;5079797;28;20487;-51
2022/11/10 01:28:16;;;;;;;175.40;34.45;;;10.00;99.90;;;;;;5044597;28;20052;-54
2022/11/10 01:30:42;;;;;;;95.80;29.90;;;10.00;99.90;;;;;;5074700;28;20107;-52
2022/11/10 01:33:07;;;;;;;85.05;32.17;;;10.00;99.90;;;;;;5079758;28;20021;-52
2022/11/10 01:35:34;;;;;;;52.05;25.88;;;9.90;99.90;;;;;;5068776;28;20083;-53
2022/11/10 01:37:59;;;;;;;103.63;31.35;;;9.80;99.90;;;;;;5071796;28;20024;-54
2022/11/10 01:40:25;;;;;;;76.82;27.08;;;9.80;99.90;;;;;;5072871;28;20499;-53
2022/11/10 01:42:54;;;;;;;85.43;28.23;;;9.90;99.90;;;;;;5074439;28;20032;-53
2022/11/10 01:45:23;;;;;;;69.68;32.90;;;9.80;99.90;;;;;;5081487;28;20029;-52
2022/11/10 01:47:58;;;;;;;45.67;28.02;;;9.80;99.90;;;;;;5069819;28;20033;-52
2022/11/10 01:50:27;;;;;;;39.72;28.60;;;9.70;99.90;;;;;;5029602;28;20033;-51
2022/11/10 01:53:00;;;;;;;37.97;29.63;;;9.70;99.90;;;;;;5070316;28;20029;-52
2022/11/10 01:55:26;;;;;;;44.33;29.55;;;9.70;99.90;;;;;;5084632;28;20025;-52
2022/11/10 01:57:52;;;;;;;47.50;28.17;;;9.80;99.90;;;;;;5077436;28;20041;-52
2022/11/10 02:00:18;;;;;;;45.95;26.05;;;9.80;99.90;;;;;;5085863;28;20107;-53
2022/11/10 02:03:10;;;;;;;79.57;28.00;;;9.70;99.90;;;;;;5074629;28;20035;-54
2022/11/10 02:05:36;;;;;;;62.25;28.05;;;9.80;99.90;;;;;;5031447;28;20044;-53
2022/11/10 02:08:02;;;;;;;113.85;30.02;;;9.70;99.90;;;;;;5042222;28;20033;-52
2022/11/10 02:10:28;;;;;;;85.10;30.40;;;9.70;99.90;;;;;;5040244;28;20040;-53
2022/11/10 02:12:54;;;;;;;97.18;32.05;;;9.70;99.90;;;;;;5007282;28;20044;-53
2022/11/10 02:15:21;;;;;;;118.75;34.60;;;9.60;99.90;;;;;;5046301;28;20032;-52
2022/11/10 02:17:47;;;;;;;64.80;32.47;;;9.60;99.90;;;;;;5041729;28;20032;-52
2022/11/10 02:20:17;;;;;;;63.45;32.65;;;9.60;99.90;;;;;;5041534;28;20104;-54
2022/11/10 02:22:43;;;;;;;142.15;35.15;;;9.50;99.90;;;;;;5041618;28;20061;-52
2022/11/10 02:25:16;;;;;;;126.57;34.95;;;9.60;99.90;;;;;;5037098;28;20025;-55
2022/11/10 02:27:42;;;;;;;108.63;35.25;;;9.50;99.90;;;;;;5021654;28;20053;-54
2022/11/10 02:30:08;;;;;;;84.07;33.67;;;9.50;99.90;;;;;;4997236;28;20037;-53
2022/11/10 02:32:33;;;;;;;47.97;31.27;;;9.60;99.90;;;;;;5008184;28;20154;-52
2022/11/10 02:34:59;;;;;;;48.00;33.53;;;9.60;99.90;;;;;;5031391;28;20108;-52
2022/11/10 02:37:25;;;;;;;51.78;31.95;;;9.60;99.90;;;;;;4977468;28;20041;-53
2022/11/10 02:39:50;;;;;;;61.67;34.28;;;9.50;99.90;;;;;;5033208;28;20476;-53
2022/11/10 02:42:16;;;;;;;59.95;33.95;;;9.60;99.90;;;;;;4987658;28;20072;-53
2022/11/10 02:44:42;;;;;;;79.78;45.30;;;9.60;99.90;;;;;;5012976;28;20038;-54
2022/11/10 02:47:08;;;;;;;45.85;37.00;;;9.50;99.90;;;;;;4994930;28;20408;-51
2022/11/10 02:49:34;;;;;;;38.40;33.15;;;9.50;99.90;;;;;;5043649;28;20025;-52
2022/11/10 02:51:59;;;;;;;40.55;34.53;;;9.60;99.90;;;;;;5050591;28;20467;-53
2022/11/10 02:54:25;;;;;;;37.08;31.40;;;9.60;99.90;;;;;;5041633;28;20037;-54
2022/11/10 02:56:51;;;;;;;48.65;39.42;;;9.70;99.90;;;;;;5045423;28;20029;-53
2022/11/10 02:59:16;;;;;;;51.03;38.78;;;9.70;99.90;;;;;;5027846;28;20098;-54
2022/11/10 03:01:42;;;;;;;71.50;39.13;;;9.50;99.90;;;;;;5078890;28;20135;-53
2022/11/10 03:04:08;;;;;;;87.15;38.40;;;9.10;99.90;;;;;;5074774;28;20032;-52
2022/11/10 03:06:34;;;;;;;93.18;40.92;;;8.80;99.90;;;;;;5067365;28;20048;-52
2022/11/10 03:09:00;;;;;;;63.45;39.33;;;8.50;99.90;;;;;;5081450;28;20027;-52
2022/11/10 03:11:26;;;;;;;45.13;36.63;;;8.60;99.90;;;;;;5083851;28;20082;-53
2022/11/10 03:13:51;;;;;;;42.92;34.58;;;8.80;99.90;;;;;;5082146;28;20024;-52
2022/11/10 03:16:17;;;;;;;44.65;35.35;;;8.90;99.90;;;;;;5076361;28;20061;-53
2022/11/10 03:18:43;;;;;;;39.05;32.75;;;9.00;99.90;;;;;;5079378;28;20035;-52
2022/11/10 03:21:09;;;;;;;39.40;33.67;;;9.10;99.90;;;;;;5078441;28;20064;-53
2022/11/10 03:23:35;;;;;;;53.65;35.17;;;9.20;99.90;;;;;;5079675;28;20110;-53
2022/11/10 03:26:05;;;;;;;99.22;54.20;;;9.30;99.90;;;;;;5088505;28;20024;-52
2022/11/10 03:28:31;;;;;;;105.00;43.25;;;9.20;99.90;;;;;;5075648;28;20024;-52
2022/11/10 03:30:56;;;;;;;88.32;38.08;;;8.90;99.90;;;;;;5035163;28;20389;-52
2022/11/10 03:33:23;;;;;;;54.58;34.60;;;8.80;99.90;;;;;;5022575;28;20492;-53
2022/11/10 03:35:49;;;;;;;47.42;35.35;;;8.80;99.90;;;;;;5074675;28;20043;-52
2022/11/10 03:38:15;;;;;;;39.65;30.10;;;8.80;99.90;;;;;;5066341;28;20036;-52
2022/11/10 03:40:40;;;;;;;36.38;28.88;;;8.50;99.90;;;;;;5081698;28;20033;-52
2022/11/10 03:43:07;;;;;;;34.30;26.52;;;8.10;99.90;;;;;;5056442;28;20044;-53
2022/11/10 03:45:32;;;;;;;32.50;25.23;;;7.90;99.90;;;;;;5084126;28;20492;-52
2022/11/10 03:47:58;;;;;;;30.10;24.27;;;7.90;99.90;;;;;;5077069;28;20028;-52
2022/11/10 03:50:24;;;;;;;34.45;25.58;;;7.90;99.90;;;;;;5052613;28;20052;-56
2022/11/10 03:52:50;;;;;;;31.00;23.45;;;7.80;99.90;;;;;;5084090;28;20108;-53
2022/11/10 03:55:17;;;;;;;33.88;23.67;;;7.60;99.90;;;;;;5078846;28;20028;-52
2022/11/10 03:57:43;;;;;;;34.17;24.27;;;7.70;99.90;;;;;;5085366;28;20032;-53
2022/11/10 04:00:11;;;;;;;30.33;22.92;;;7.90;99.90;;;;;;5076943;28;20395;-58
2022/11/10 04:02:38;;;;;;;31.50;23.70;;;8.10;99.90;;;;;;5039279;28;20049;-53
2022/11/10 04:10:43;;;;;;;30.77;21.52;;;7.90;99.90;;;;;;5041337;28;20455;-52
2022/11/10 04:15:53;;;;;;;31.02;21.52;;;7.50;99.90;;;;;;5020008;28;20061;-52
2022/11/10 04:18:25;;;;;;;29.27;21.25;;;7.60;99.90;;;;;;5041270;28;20474;-52
2022/11/10 04:20:53;;;;;;;29.42;21.55;;;7.60;99.90;;;;;;5037441;28;20068;-52
2022/11/10 04:23:27;;;;;;;30.38;20.90;;;7.90;99.90;;;;;;5034173;28;20048;-54
2022/11/10 04:28:40;;;;;;;29.65;21.70;;;7.90;99.90;;;;;;5035727;28;20086;-52
2022/11/10 04:31:06;;;;;;;30.30;22.00;;;7.70;99.90;;;;;;5033706;28;20037;-53
2022/11/10 04:33:32;;;;;;;26.17;20.13;;;7.60;99.90;;;;;;5036154;28;20107;-52
2022/11/10 04:35:58;;;;;;;27.50;21.10;;;7.50;99.90;;;;;;5039417;28;20477;-52
2022/11/10 04:38:24;;;;;;;25.08;18.50;;;7.50;99.90;;;;;;5037747;28;20168;-52
2022/11/10 04:40:50;;;;;;;27.60;20.08;;;7.30;99.90;;;;;;5049153;28;20069;-52
2022/11/10 04:43:16;;;;;;;27.90;19.92;;;7.20;99.90;;;;;;5078330;28;20028;-52
2022/11/10 04:45:42;;;;;;;27.25;19.98;;;7.20;99.90;;;;;;5082059;28;20024;-52
2022/11/10 04:48:08;;;;;;;28.02;19.45;;;7.30;99.90;;;;;;5070456;28;20040;-52
2022/11/10 04:50:34;;;;;;;28.13;19.98;;;7.40;99.90;;;;;;5062757;28;20050;-52
2022/11/10 04:53:00;;;;;;;27.70;19.92;;;7.40;99.90;;;;;;5077277;28;20535;-52
2022/11/10 04:55:25;;;;;;;26.83;19.17;;;8.10;99.90;;;;;;5073146;28;20560;-52
2022/11/10 04:57:51;;;;;;;30.02;18.80;;;8.10;99.90;;;;;;5064102;28;20051;-53
2022/11/10 05:00:18;;;;;;;30.77;18.70;;;8.30;99.90;;;;;;5078257;28;20027;-52
2022/11/10 05:02:43;;;;;;;33.03;20.45;;;8.40;99.90;;;;;;5080639;28;20119;-52
2022/11/10 05:05:10;;;;;;;32.35;22.35;;;8.40;99.90;;;;;;5078228;28;20468;-53
2022/11/10 05:07:36;;;;;;;33.28;22.20;;;8.30;99.90;;;;;;5082078;28;20035;-52
2022/11/10 05:10:03;;;;;;;35.75;23.75;;;8.30;99.90;;;;;;5073650;28;20040;-54
2022/11/10 05:12:28;;;;;;;30.85;23.50;;;8.40;99.90;;;;;;5079817;28;20016;-52
2022/11/10 05:14:54;;;;;;;34.30;23.58;;;8.50;99.90;;;;;;5078358;28;20085;-52
2022/11/10 05:17:21;;;;;;;36.10;24.30;;;8.50;99.90;;;;;;5069178;28;20033;-56
2022/11/10 05:19:47;;;;;;;45.80;26.60;;;8.60;99.90;;;;;;5070837;28;20024;-52
2022/11/10 05:22:13;;;;;;;38.35;27.35;;;8.80;99.90;;;;;;5086229;28;20028;-53
2022/11/10 05:24:38;;;;;;;32.65;23.63;;;8.90;99.90;;;;;;5080903;28;20498;-52
2022/11/10 05:27:04;;;;;;;34.45;24.90;;;8.90;99.90;;;;;;5072683;28;20032;-52
2022/11/10 05:29:30;;;;;;;31.30;23.67;;;9.00;99.90;;;;;;5071792;28;20032;-52
2022/11/10 05:31:56;;;;;;;38.95;23.38;;;9.10;99.90;;;;;;5066144;28;20035;-52
2022/11/10 05:34:22;;;;;;;41.38;28.30;;;9.10;99.90;;;;;;5072347;28;20107;-53
2022/11/10 05:36:47;;;;;;;43.22;30.50;;;9.10;99.90;;;;;;5051491;28;20040;-52
2022/11/10 05:39:13;;;;;;;42.45;30.50;;;9.00;99.90;;;;;;5062993;28;20477;-52
2022/11/10 05:41:39;;;;;;;43.35;30.08;;;9.00;99.90;;;;;;5070733;28;20036;-53
2022/11/10 05:44:05;;;;;;;37.88;24.10;;;9.10;99.90;;;;;;5079576;28;20038;-52
2022/11/10 05:46:31;;;;;;;28.98;21.00;;;9.20;99.90;;;;;;5069402;28;20025;-53
2022/11/10 05:48:56;;;;;;;27.13;19.38;;;9.00;99.90;;;;;;5069169;28;20507;-52
2022/11/10 05:51:22;;;;;;;26.95;18.42;;;8.70;99.90;;;;;;5068217;28;20033;-52
2022/11/10 05:53:48;;;;;;;27.88;19.25;;;8.70;99.90;;;;;;5068163;28;20021;-52
2022/11/10 05:56:13;;;;;;;25.92;18.70;;;8.90;99.90;;;;;;5047462;28;20098;-52
2022/11/10 05:58:39;;;;;;;32.58;20.60;;;9.00;99.90;;;;;;5070349;28;20718;-53
2022/11/10 06:01:05;;;;;;;36.67;23.23;;;8.70;99.90;;;;;;5047640;28;20132;-52
2022/11/10 06:03:31;;;;;;;41.08;24.35;;;8.90;99.90;;;;;;5067318;28;20036;-52
2022/11/10 06:05:56;;;;;;;64.88;34.38;;;9.30;99.90;;;;;;5076205;28;20064;-52
2022/11/10 06:08:22;;;;;;;56.42;30.60;;;11.10;99.90;;;;;;5073209;28;20032;-53
2022/11/10 06:10:48;;;;;;;52.60;29.05;;;11.30;99.90;;;;;;5067444;28;20052;-52
2022/11/10 06:13:13;;;;;;;68.10;35.95;;;12.60;99.90;;;;;;5049203;28;20132;-52
2022/11/10 06:15:39;;;;;;;41.65;25.60;;;13.60;99.90;;;;;;5060491;28;20436;-52
2022/11/10 06:18:06;;;;;;;32.90;21.83;;;;;;;;;;5080529;28;20388;-53
2022/11/10 06:20:32;;;;;;;134.85;101.25;;;;;;;;;;5085291;28;20031;-52
2022/11/10 06:23:08;;;;;;;126.82;87.25;;;16.80;99.90;;;;;;5069643;28;20040;-52
2022/11/10 06:25:35;;;;;;;55.92;38.42;;;17.90;99.90;;;;;;5076093;28;20408;-52
2022/11/10 06:28:02;;;;;;;30.88;24.77;;;;;;;;;;5073457;28;20036;-52
2022/11/10 06:30:30;;;;;;;34.17;22.65;;;18.90;99.90;;;;;;5076067;28;20040;-56
2022/11/10 06:32:56;;;;;;;28.40;21.08;;;19.30;99.90;;;;;;5081098;28;20035;-54
2022/11/10 06:35:23;;;;;;;27.90;21.73;;;;;;;;;;5073120;28;20020;-55
2022/11/10 06:37:59;;;;;;;26.77;21.15;;;20.00;98.70;;;;;;5057146;28;20086;-55
2022/11/10 06:40:25;;;;;;;33.63;25.63;;;20.10;97.60;;;;;;5061317;28;20433;-55
2022/11/10 06:42:51;;;;;;;25.20;21.85;;;;;;;;;;5059199;28;20103;-55
2022/11/10 06:45:17;;;;;;;31.48;22.67;;;;;;;;;;5065024;28;20027;-56
2022/11/10 06:47:43;;;;;;;28.10;23.42;;;;;;;;;;5071224;28;20099;-55
2022/11/10 06:50:09;;;;;;;37.92;27.58;;;;;;;;;;5064915;28;20021;-55
2022/11/10 06:52:35;;;;;;;37.53;25.80;;;18.70;98.10;;;;;;5074107;28;20042;-53
2022/11/10 06:55:01;;;;;;;33.33;22.70;;;20.20;98.60;;;;;;5067896;28;20119;-53
2022/11/10 06:57:27;;;;;;;24.60;20.40;;;21.20;98.20;;;;;;5080325;28;20099;-53
2022/11/10 06:59:53;;;;;;;24.73;20.83;;;21.50;98.80;;;;;;5081690;28;20514;-53
2022/11/10 07:02:19;;;;;;;26.13;21.33;;;21.80;96.50;;;;;;5070323;28;20036;-53
2022/11/10 07:04:44;;;;;;;25.88;21.30;;;21.50;95.90;;;;;;5073629;28;20041;-53
2022/11/10 07:07:10;;;;;;;29.92;21.95;;;21.80;95.80;;;;;;5065061;28;20036;-53
2022/11/10 07:09:37;;;;;;;51.00;36.78;;;21.90;94.90;;;;;;5073187;28;20039;-53
2022/11/10 07:12:03;;;;;;;38.35;26.85;;;;;;;;;;5072939;28;20029;-53
2022/11/10 07:14:30;;;;;;;41.90;24.33;;;;;;;;;;5077823;28;20119;-53
2022/11/10 07:16:55;;;;;;;30.85;24.00;;;23.20;96.40;;;;;;5068494;28;20040;-53
2022/11/10 07:19:21;;;;;;;30.48;24.88;;;;;;;;;;5079796;28;20028;-53
2022/11/10 07:21:47;;;;;;;39.55;26.02;;;23.60;99.90;;;;;;5076384;28;20042;-53
2022/11/10 07:24:13;;;;;;;32.88;26.10;;;23.10;93.00;;;;;;5069187;28;20025;-53
2022/11/10 07:26:38;;;;;;;29.50;23.48;;;22.50;93.10;;;;;;5074021;28;20445;-53
2022/11/10 07:29:04;;;;;;;31.05;25.52;;;22.60;93.10;;;;;;5063722;28;20037;-53
2022/11/10 07:31:30;;;;;;;37.88;30.30;;;;;;;;;;5062901;28;20372;-53
2022/11/10 07:33:56;;;;;;;28.27;23.65;;;23.60;93.10;;;;;;5035365;28;20045;-53
2022/11/10 07:36:22;;;;;;;26.30;22.55;;;;;;;;;;5053948;28;20400;-53
2022/11/10 07:38:48;;;;;;;26.58;23.70;;;;;;;;;;5052907;28;20269;-53
2022/11/10 07:41:14;;;;;;;25.95;23.20;;;;;;;;;;5037822;28;20082;-53
2022/11/10 07:43:40;;;;;;;28.20;22.17;;;;;;;;;;5057033;28;20025;-53
2022/11/10 07:46:06;;;;;;;27.30;24.42;;;26.50;90.80;;;;;;5056592;28;20029;-53
2022/11/10 07:48:32;;;;;;;31.15;27.92;;;;;;;;;;5059578;28;20448;-53
2022/11/10 07:50:58;;;;;;;25.27;22.77;;;28.10;89.10;;;;;;5057177;28;20029;-53
2022/11/10 08:05:15;;;;;;;28.58;23.48;;;29.70;99.90;;;;;;5045876;28;20957;-52
2022/11/10 08:07:41;;;;;;;23.95;20.55;;;29.40;82.20;;;;;;5044050;28;20032;-50
2022/11/10 08:10:08;;;;;;;29.13;23.48;;;30.20;81.10;;;;;;5041196;28;20519;-53
2022/11/10 08:12:34;;;;;;;24.50;21.85;;;;;;;;;;5032769;28;20125;-53
2022/11/10 08:15:00;;;;;;;23.10;20.35;;;;;;;;;;5037393;28;20065;-51
2022/11/10 08:17:26;;;;;;;21.63;19.30;;;28.40;79.70;;;;;;5045071;28;20036;-52
2022/11/10 08:19:52;;;;;;;24.80;20.42;;;28.20;80.00;;;;;;5044202;28;20468;-53
2022/11/10 08:22:17;;;;;;;22.52;20.23;;;28.50;81.20;;;;;;5056599;28;20083;-51
2022/11/10 08:24:44;;;;;;;24.15;19.88;;;;;;;;;;5042707;28;20445;-51
2022/11/10 08:27:10;;;;;;;26.75;20.00;;;;;;;;;;5041044;28;20064;-55
2022/11/10 08:29:36;;;;;;;27.17;20.23;;;;;;;;;;4994161;28;20136;-52
2022/11/10 08:32:02;;;;;;;23.45;19.27;;;;;;;;;;5043477;28;20472;-53
2022/11/10 08:34:28;;;;;;;24.27;19.90;;;;;;;;;;5036426;28;20042;-56
2022/11/10 08:36:54;;;;;;;24.60;19.80;;;;;;;;;;5006442;28;20037;-59
2022/11/10 08:39:20;;;;;;;22.88;19.58;;;;;;;;;;4991272;28;20180;-59
2022/11/10 08:41:46;;;;;;;21.13;18.85;;;;;;;;;;5032440;28;20049;-59
2022/11/10 08:44:12;;;;;;;24.13;19.65;;;;;;;;;;5039277;28;20384;-58
2022/11/10 08:46:38;;;;;;;21.73;19.63;;;30.50;77.70;;;;;;5042621;28;20037;-60
2022/11/10 08:49:04;;;;;;;21.25;19.05;;;;;;;;;;5042915;28;20030;-58
2022/11/10 08:51:30;;;;;;;20.83;18.67;;;;;;;;;;5044579;28;20075;-60
2022/11/10 08:53:57;;;;;;;21.92;18.77;;;;;;;;;;5043833;28;20362;-59
2022/11/10 08:56:22;;;;;;;22.45;20.05;;;32.30;99.20;;;;;;5042286;28;20121;-59
2022/11/10 08:58:50;;;;;;;22.40;20.10;;;;;;;;;;5041258;28;20468;-59
2022/11/10 09:01:16;;;;;;;23.02;18.98;;;;;;;;;;5043742;28;20159;-59
2022/11/10 09:03:42;;;;;;;25.55;20.48;;;31.40;99.90;;;;;;5042922;28;20040;-58
2022/11/10 09:06:08;;;;;;;22.80;20.15;;;31.00;96.50;;;;;;5034490;28;20643;-59
2022/11/10 09:08:34;;;;;;;24.15;21.65;;;;;;;;;;5028117;28;20061;-59
2022/11/10 09:11:03;;;;;;;22.55;20.25;;;;;;;;;;5034251;28;20041;-60
2022/11/10 09:13:30;;;;;;;25.00;22.50;;;;;;;;;;5032192;28;20029;-59
2022/11/10 09:15:59;;;;;;;22.20;20.00;;;;;;;;;;5033894;28;20457;-59
2022/11/10 09:18:25;;;;;;;23.30;21.00;;;;;;;;;;5031802;28;20033;-59
2022/11/10 09:20:51;;;;;;;23.45;20.95;;;30.80;84.00;;;;;;5029219;28;20045;-59
2022/11/10 09:23:18;;;;;;;23.23;20.80;;;;;;;;;;5033658;28;20408;-60
2022/11/10 09:25:49;;;;;;;24.27;20.15;;;30.80;91.40;;;;;;5028715;28;20034;-60
2022/11/10 09:28:16;;;;;;;21.35;19.38;;;31.20;91.80;;;;;;5035227;28;20109;-59
2022/11/10 09:30:45;;;;;;;22.52;20.13;;;;;;;;;;5032526;28;20040;-59
2022/11/10 09:33:11;;;;;;;23.80;21.20;;;;;;;;;;5045305;28;20100;-61
2022/11/10 09:35:36;;;;;;;22.55;20.35;;;28.70;77.90;;;;;;5030940;28;20029;-60
2022/11/10 09:38:02;;;;;;;23.48;21.27;;;;;;;;;;5029900;28;20079;-59
2022/11/10 09:40:40;;;;;;;22.90;20.60;;;;;;;;;;5027841;28;20025;-59
2022/11/10 09:43:14;;;;;;;23.60;21.35;;;29.60;78.10;;;;;;5031735;28;20384;-60
2022/11/10 09:45:42;;;;;;;22.38;20.13;;;;;;;;;;5033071;28;20443;-59
2022/11/10 09:48:11;;;;;;;22.98;20.60;;;;;;;;;;5065381;28;20096;-60
2022/11/10 09:50:45;;;;;;;22.35;19.90;;;29.40;79.60;;;;;;5028927;28;20104;-60
2022/11/10 09:53:14;;;;;;;23.50;20.10;;;;;;;;;;5032472;28;20053;-60
2022/11/10 09:55:45;;;;;;;23.33;20.52;;;28.50;99.60;;;;;;5032273;28;20068;-60
2022/11/10 09:58:14;;;;;;;23.70;21.20;;;28.70;98.10;;;;;;5033469;28;20036;-60
2022/11/10 10:00:48;;;;;;;23.15;20.88;;;;;;;;;;5029946;28;20061;-60
2022/11/10 10:03:22;;;;;;;23.77;21.35;;;28.80;99.90;;;;;;5028279;28;20060;-60
2022/11/10 10:06:11;;;;;;;28.40;25.60;;;27.60;82.10;;;;;;5031871;28;20045;-60
2022/11/10 10:09:07;;;;;;;25.40;20.35;;;28.50;81.40;;;;;;5035267;28;20068;-60
2022/11/10 10:11:33;;;;;;;24.60;19.83;;;26.90;82.50;;;;;;5030170;28;20053;-60
2022/11/10 10:14:16;;;;;;;21.92;18.65;;;26.80;84.90;;;;;;5028782;28;20075;-60
2022/11/10 10:17:01;;;;;;;21.48;17.98;;;;;;;;;;5025884;28;20041;-60
2022/11/10 10:19:45;;;;;;;37.05;19.95;;;28.60;82.90;;;;;;5058433;28;20567;-60
2022/11/10 10:22:16;;;;;;;19.00;17.38;;;28.70;81.00;;;;;;5028902;28;20079;-60
2022/11/10 10:24:42;;;;;;;;;;;28.60;80.80;;;;;;5047478;28;20503;-60
2022/11/10 10:27:14;;;;;;;15.43;13.57;;;29.00;80.90;;;;;;5029418;28;19955;-60
2022/11/10 10:29:45;;;;;;;16.23;13.20;;;;;;;;;;5028530;28;20032;-60
2022/11/10 10:32:13;;;;;;;17.48;15.10;;;28.60;97.60;;;;;;5028013;28;20114;-59
2022/11/10 10:34:40;;;;;;;18.38;14.57;;;28.30;99.90;;;;;;5030264;28;20506;-60
2022/11/10 10:37:38;;;;;;;16.05;14.35;;;28.40;82.00;;;;;;5032077;28;20075;-60
2022/11/10 10:40:04;;;;;;;18.90;15.43;;;28.70;80.20;;;;;;5028380;28;20555;-60
2022/11/10 10:42:34;;;;;;;16.40;14.52;;;27.20;82.80;;;;;;5047505;28;20036;-59
2022/11/10 10:45:23;;;;;;;14.73;13.23;;;;;;;;;;4991212;28;20068;-60
2022/11/10 10:47:51;;;;;;;14.60;12.75;;;;;;;;;;4932214;29;20052;-59
2022/11/10 10:50:33;;;;;;;16.73;13.10;;;28.20;89.50;;;;;;4915054;29;20546;-59
2022/11/10 10:53:28;;;;;;;18.73;14.25;;;27.10;81.20;;;;;;4933966;29;20138;-60
2022/11/10 10:56:21;;;;;;;15.80;12.93;;;27.70;82.70;;;;;;4855875;29;20537;-56
2022/11/10 10:58:55;;;;;;;17.55;14.65;;;;;;;;;;4856806;29;20124;-57
2022/11/10 11:01:29;;;;;;;15.18;12.95;;;27.20;99.90;;;;;;4857993;29;20051;-57
2022/11/10 11:03:55;;;;;;;17.08;13.88;;;26.80;84.60;;;;;;4857149;29;20061;-53
2022/11/10 11:06:31;;;;;;;18.77;14.43;;;26.60;83.20;;;;;;4858173;29;20052;-65
2022/11/10 11:08:59;;;;;;;15.68;14.07;;;26.40;84.00;;;;;;4856754;29;20052;-55
2022/11/10 11:11:29;;;;;;;20.50;14.52;;;;;;;;;;4856781;29;20041;-58
2022/11/10 11:14:17;;;;;;;18.25;15.13;;;25.90;85.20;;;;;;4852758;29;20081;-57
2022/11/10 11:16:55;;;;;;;16.27;14.38;;;26.50;85.60;;;;;;4885616;29;20172;-58
2022/11/10 11:19:24;;;;;;;14.93;13.40;;;27.00;85.70;;;;;;4895363;29;20032;-57
2022/11/10 11:22:23;;;;;;;17.50;13.57;;;27.00;84.10;;;;;;4894797;29;20032;-57
2022/11/10 11:24:52;;;;;;;17.05;13.48;;;27.30;83.60;;;;;;4916726;29;20964;-56
2022/11/10 11:27:37;;;;;;;18.38;14.80;;;27.10;83.50;;;;;;4968538;28;20523;-58
2022/11/10 11:30:24;;;;;;;17.98;14.73;;;27.30;84.40;;;;;;4950666;28;20050;-56
2022/11/10 11:33:16;;;;;;;17.17;14.98;;;27.00;84.70;;;;;;5008802;28;20511;-56
2022/11/10 11:36:11;;;;;;;15.30;12.93;;;26.50;86.00;;;;;;5028565;28;20136;-51
2022/11/10 11:39:11;;;;;;;15.05;13.02;;;26.70;91.30;;;;;;5009627;28;20037;-51
2022/11/10 11:41:55;;;;;;;20.63;15.18;;;26.10;86.60;;;;;;4974828;28;20516;-53
2022/11/10 11:44:36;;;;;;;19.08;13.10;;;26.20;89.50;;;;;;5005743;28;20164;-54
2022/11/10 11:47:07;;;;;;;11.75;10.18;;;26.00;87.50;;;;;;5008092;28;20045;-54
2022/11/10 11:49:52;;;;;;;11.57;7.80;;;;;;;;;;5024080;28;20034;-59
2022/11/10 11:52:20;;;;;;;9.07;6.65;;;25.60;86.10;;;;;;4977313;28;20106;-53
2022/11/10 11:54:46;;;;;;;8.18;6.10;;;24.80;87.70;;;;;;4992827;28;20121;-57
2022/11/10 11:57:31;;;;;;;8.90;6.65;;;24.50;88.50;;;;;;5010148;28;20137;-53
2022/11/10 12:00:16;;;;;;;7.65;6.10;;;24.20;88.70;;;;;;4977029;28;20457;-53
2022/11/10 12:03:02;;;;;;;8.23;6.60;;;23.60;89.40;;;;;;5009586;28;20041;-61
2022/11/10 12:05:51;;;;;;;10.32;6.93;;;23.70;90.70;;;;;;5010111;28;20152;-58
2022/11/10 12:08:52;;;;;;;8.05;5.78;;;;;;;;;;5008527;28;20073;-60
2022/11/10 12:11:36;;;;;;;10.00;7.70;;;23.30;92.00;;;;;;4913683;29;20559;-53
2022/11/10 12:14:09;;;;;;;10.45;8.70;;;23.30;91.00;;;;;;4915182;29;20054;-53
2022/11/10 12:16:37;;;;;;;12.45;9.38;;;23.10;90.80;;;;;;4929093;29;20048;-48
2022/11/10 12:19:03;;;;;;;12.70;9.13;;;23.10;91.00;;;;;;4929693;29;20043;-49
2022/11/10 12:21:45;;;;;;;11.50;9.07;;;23.20;91.50;;;;;;4930072;29;20036;-50
2022/11/10 12:24:22;;;;;;;13.88;9.98;;;23.20;90.90;;;;;;4932975;29;20031;-51
2022/11/10 12:26:51;;;;;;;10.95;9.85;;;;;;;;;;4930523;29;20171;-53
2022/11/10 12:29:38;;;;;;;12.43;9.48;;;22.90;94.40;;;;;;4934258;29;20043;-57
2022/11/10 12:32:15;;;;;;;11.43;9.40;;;22.40;91.90;;;;;;4930766;29;20529;-52
2022/11/10 12:34:43;;;;;;;10.00;8.15;;;;;;;;;;4933992;29;20163;-53
2022/11/10 12:37:14;;;;;;;11.77;8.95;;;;;;;;;;4930481;29;20054;-54
2022/11/10 12:40:00;;;;;;;11.45;8.25;;;21.50;96.50;;;;;;4925480;29;20048;-54
2022/11/10 12:42:28;;;;;;;10.85;8.93;;;21.30;93.40;;;;;;4903491;29;20043;-53
2022/11/10 12:45:00;;;;;;;11.32;5.65;;;21.40;93.30;;;;;;4966282;28;20381;-54
2022/11/10 12:47:33;;;;;;;9.20;5.97;;;20.70;93.30;;;;;;5033089;28;20038;-52
2022/11/10 12:50:15;;;;;;;9.68;4.97;;;20.20;94.00;;;;;;5032350;28;20072;-54
2022/11/10 12:53:06;;;;;;;6.47;4.18;;;19.80;95.00;;;;;;5029899;28;20072;-53
2022/11/10 12:55:38;;;;;;;8.43;6.72;;;;;;;;;;5027165;28;20493;-54
2022/11/10 12:58:05;;;;;;;8.38;6.88;;;19.10;97.20;;;;;;5028168;28;20038;-54
2022/11/10 13:00:42;;;;;;;10.75;7.20;;;18.90;98.20;;;;;;5030826;28;20034;-53
2022/11/10 13:03:14;;;;;;;10.32;7.70;;;18.60;99.20;;;;;;5029515;28;20037;-51
2022/11/10 13:05:41;;;;;;;;;;;18.50;99.90;;;;;;5031916;28;20034;-55
2022/11/10 13:08:24;;;;;;;14.75;9.40;;;18.50;99.90;;;;;;5000379;28;20352;-53
2022/11/10 13:11:09;;;;;;;14.10;10.75;;;18.50;99.90;;;;;;5032709;28;20041;-54
2022/11/10 13:13:57;;;;;;;13.70;10.35;;;18.60;99.90;;;;;;5020153;28;20405;-52
2022/11/10 13:16:40;;;;;;;17.35;13.88;;;18.60;99.90;;;;;;5019795;28;20034;-54
2022/11/10 13:19:10;;;;;;;32.33;15.50;;;18.80;99.90;;;;;;5020616;28;20044;-51
2022/11/10 13:21:52;;;;;;;17.30;13.57;;;19.00;99.90;;;;;;5022508;28;20607;-50
2022/11/10 13:24:20;;;;;;;18.15;14.00;;;19.00;99.90;;;;;;5028137;28;20044;-51
2022/11/10 13:26:56;;;;;;;17.73;13.60;;;19.20;99.90;;;;;;5030342;28;20029;-53